createdAt,value
2022-09-02T00:02:49.743Z,60.91
2022-09-02T00:05:53.966Z,61.70
2022-09-02T00:08:58.138Z,62.11
2022-09-02T00:12:02.494Z,61.58
2022-09-02T00:15:07.423Z,61.00
2022-09-02T00:18:15.577Z,60.90
2022-09-02T00:21:22.688Z,60.78
2022-09-02T00:24:26.773Z,60.53
2022-09-02T00:27:30.926Z,60.39
2022-09-02T00:30:35.794Z,60.18
2022-09-02T00:33:40.397Z,59.96
2022-09-02T00:36:44.356Z,60.08
2022-09-02T00:39:48.331Z,60.05
2022-09-02T00:42:52.582Z,60.21
2022-09-02T00:45:56.768Z,60.16
2022-09-02T00:49:03.654Z,59.98
2022-09-02T00:52:10.420Z,59.91
2022-09-02T00:55:16.168Z,59.86
2022-09-02T00:58:22.582Z,59.76
2022-09-02T01:01:27.493Z,59.77
2022-09-02T01:04:31.540Z,60.00
2022-09-02T01:07:38.727Z,60.13
2022-09-02T01:10:43.415Z,60.27
2022-09-02T01:13:47.768Z,60.48
2022-09-02T01:16:53.112Z,60.38
2022-09-02T01:19:58.964Z,60.23
2022-09-02T01:23:03.110Z,60.03
2022-09-02T01:26:08.023Z,59.87
2022-09-02T01:29:11.955Z,59.89
2022-09-02T01:32:15.930Z,59.72
2022-09-02T01:35:19.837Z,59.63
2022-09-02T01:38:24.572Z,59.75
2022-09-02T01:41:28.790Z,59.93
2022-09-02T01:44:33.673Z,59.79
2022-09-02T01:47:37.784Z,59.95
2022-09-02T01:50:46.749Z,59.98
2022-09-02T01:53:51.019Z,60.14
2022-09-02T01:56:55.144Z,60.15
2022-09-02T01:59:59.186Z,60.18
2022-09-02T02:03:03.765Z,60.09
2022-09-02T02:06:11.696Z,59.85
2022-09-02T02:09:16.538Z,60.18
2022-09-02T02:12:21.090Z,60.16
2022-09-02T02:18:29.868Z,60.20
2022-09-02T02:21:33.961Z,60.21
2022-09-02T02:24:38.382Z,60.33
2022-09-02T02:27:43.593Z,60.43
2022-09-02T02:30:47.934Z,60.28
2022-09-02T02:33:52.120Z,60.51
2022-09-02T02:36:56.197Z,60.98
2022-09-02T02:40:00.260Z,61.49
2022-09-02T02:43:04.561Z,61.34
2022-09-02T02:46:09.204Z,61.49
2022-09-02T02:49:13.193Z,61.32
2022-09-02T02:52:17.315Z,60.74
2022-09-02T02:55:21.847Z,60.59
2022-09-02T02:58:25.923Z,60.23
2022-09-02T03:01:30.090Z,60.14
2022-09-02T03:04:34.412Z,60.07
2022-09-02T03:07:38.672Z,60.02
2022-09-02T03:10:43.276Z,60.06
2022-09-02T03:13:47.219Z,60.06
2022-09-02T03:16:51.200Z,60.34
2022-09-02T03:19:57.803Z,60.17
2022-09-02T03:23:02.103Z,60.17
2022-09-02T03:26:10.395Z,59.88
2022-09-02T03:29:14.478Z,59.88
2022-09-02T03:32:18.525Z,60.10
2022-09-02T03:35:23.224Z,61.35
2022-09-02T03:38:27.321Z,62.10
2022-09-02T03:41:31.223Z,62.52
2022-09-02T03:44:35.411Z,62.95
2022-09-02T03:47:44.073Z,63.08
2022-09-02T03:50:48.439Z,62.80
2022-09-02T03:53:52.384Z,62.13
2022-09-02T03:56:56.283Z,61.78
2022-09-02T04:00:00.208Z,61.30
2022-09-02T04:03:04.737Z,61.16
2022-09-02T04:06:10.359Z,61.11
2022-09-02T04:09:14.318Z,60.99
2022-09-02T04:12:18.446Z,60.74
2022-09-02T04:15:22.787Z,60.65
2022-09-02T04:18:26.940Z,60.67
2022-09-02T04:21:33.694Z,60.80
2022-09-02T04:24:38.719Z,61.06
2022-09-02T04:27:42.665Z,60.98
2022-09-02T04:30:46.624Z,61.03
2022-09-02T04:33:50.587Z,61.04
2022-09-02T04:36:54.928Z,61.37
2022-09-02T04:39:58.973Z,61.39
2022-09-02T04:43:03.060Z,61.59
2022-09-02T04:46:07.834Z,61.61
2022-09-02T04:49:13.017Z,62.02
2022-09-02T04:52:16.939Z,61.97
2022-09-02T04:55:20.967Z,62.22
2022-09-02T04:58:25.055Z,62.51
2022-09-02T05:01:30.362Z,62.77
2022-09-02T05:04:34.551Z,63.13
2022-09-02T05:07:39.701Z,63.40
2022-09-02T05:10:43.646Z,63.47
2022-09-02T05:13:51.544Z,63.58
2022-09-02T05:16:55.531Z,63.83
2022-09-02T05:19:59.830Z,64.12
2022-09-02T05:23:03.763Z,64.20
2022-09-02T05:26:08.420Z,64.67
2022-09-02T05:29:13.042Z,64.96
2022-09-02T05:32:17.288Z,65.08
2022-09-02T05:35:21.360Z,65.02
2022-09-02T05:38:25.687Z,65.00
2022-09-02T05:41:29.652Z,65.28
2022-09-02T05:44:33.880Z,66.24
2022-09-02T05:47:37.834Z,67.24
2022-09-02T05:50:41.765Z,67.13
2022-09-02T05:53:45.813Z,67.17
2022-09-02T05:56:50.954Z,66.85
2022-09-02T05:59:56.981Z,66.83
2022-09-02T06:03:01.117Z,66.84
2022-09-02T06:06:06.874Z,66.61
2022-09-02T06:09:11.986Z,66.03
2022-09-02T06:12:19.013Z,65.83
2022-09-02T06:15:23.058Z,65.96
2022-09-02T06:18:27.105Z,65.95
2022-09-02T06:21:31.552Z,65.78
2022-09-02T06:24:35.597Z,65.61
2022-09-02T06:27:40.246Z,65.56
2022-09-02T06:30:45.334Z,66.00
2022-09-02T06:33:50.071Z,67.17
2022-09-02T06:36:54.619Z,67.44
2022-09-02T06:39:58.937Z,67.58
2022-09-02T06:43:02.985Z,67.00
2022-09-02T06:46:07.649Z,66.93
2022-09-02T06:49:12.320Z,67.23
2022-09-02T06:52:16.234Z,65.78
2022-09-02T06:55:20.500Z,64.88
2022-09-02T06:58:24.420Z,64.78
2022-09-02T07:01:29.688Z,64.59
2022-09-02T07:04:53.176Z,64.20
2022-09-02T07:07:59.836Z,63.22
2022-09-02T07:11:03.777Z,62.11
2022-09-02T07:14:07.924Z,61.31
2022-09-02T07:17:12.822Z,60.64
2022-09-02T07:20:17.804Z,59.69
2022-09-02T07:23:21.771Z,57.62
2022-09-02T07:26:25.717Z,57.18
2022-09-02T07:29:29.986Z,57.75
2022-09-02T07:32:33.976Z,58.19
2022-09-02T07:35:38.558Z,58.38
2022-09-02T07:38:43.232Z,58.74
2022-09-02T07:41:49.258Z,58.59
2022-09-02T07:44:53.231Z,58.67
2022-09-02T07:47:57.515Z,59.24
2022-09-02T07:51:02.011Z,59.83
2022-09-02T07:54:07.148Z,60.59
2022-09-02T07:57:11.494Z,60.82
2022-09-02T08:00:16.594Z,61.72
2022-09-02T08:03:21.193Z,59.47
2022-09-02T08:06:33.677Z,57.04
2022-09-02T08:09:39.442Z,57.17
2022-09-02T08:12:44.167Z,56.82
2022-09-02T08:15:50.905Z,59.31
2022-09-02T08:18:55.469Z,58.75
2022-09-02T08:22:03.431Z,57.52
2022-09-02T08:25:07.920Z,55.89
2022-09-02T08:28:12.165Z,56.80
2022-09-02T08:31:16.632Z,56.08
2022-09-02T08:34:20.604Z,56.88
2022-09-02T08:37:25.266Z,58.54
2022-09-02T08:40:34.286Z,58.75
2022-09-02T08:43:41.085Z,58.13
2022-09-02T08:46:45.159Z,57.72
2022-09-02T08:49:51.033Z,57.19
2022-09-02T08:52:59.489Z,56.71
2022-09-02T08:56:04.802Z,57.50
2022-09-02T08:59:10.350Z,55.63
2022-09-02T09:02:22.697Z,57.07
2022-09-02T09:05:32.385Z,57.20
2022-09-02T09:08:40.834Z,57.45
2022-09-02T09:11:48.832Z,55.51
2022-09-02T09:14:56.291Z,55.71
2022-09-02T09:18:03.094Z,54.73
2022-09-02T09:21:07.603Z,55.47
2022-09-02T09:24:26.865Z,54.80
2022-09-02T09:27:30.799Z,54.44
2022-09-02T09:30:34.784Z,55.73
2022-09-02T09:33:38.802Z,53.73
2022-09-02T09:36:46.897Z,55.13
2022-09-02T09:39:50.937Z,54.16
2022-09-02T09:42:57.238Z,55.39
2022-09-02T09:46:21.004Z,54.13
2022-09-02T09:49:28.420Z,54.53
2022-09-02T09:52:32.506Z,52.26
2022-09-02T09:55:50.484Z,52.50
2022-09-02T09:58:54.723Z,53.00
2022-09-02T10:01:58.748Z,52.74
2022-09-02T10:05:17.365Z,51.90
2022-09-02T10:08:22.891Z,52.83
2022-09-02T10:11:29.069Z,52.51
2022-09-02T10:14:36.059Z,52.21
2022-09-02T10:17:45.189Z,51.96
2022-09-02T10:24:28.632Z,50.84
2022-09-02T10:27:38.399Z,50.32
2022-09-02T10:30:46.130Z,50.91
2022-09-02T10:33:58.359Z,51.15
2022-09-02T10:37:11.812Z,51.22
2022-09-02T10:40:17.640Z,50.02
2022-09-02T10:43:29.229Z,50.20
2022-09-02T10:46:36.644Z,51.07
2022-09-02T10:50:01.068Z,50.37
2022-09-02T10:53:13.427Z,50.73
2022-09-02T10:56:18.637Z,50.69
2022-09-02T10:59:24.640Z,50.53
2022-09-02T11:02:31.747Z,50.25
2022-09-02T11:05:42.915Z,50.03
2022-09-02T11:08:48.866Z,49.77
2022-09-02T11:12:00.122Z,50.31
2022-09-02T11:15:11.290Z,50.56
2022-09-02T11:18:19.474Z,49.59
2022-09-02T11:21:32.725Z,49.17
2022-09-02T11:24:45.883Z,48.54
2022-09-02T11:27:56.008Z,47.99
2022-09-02T11:31:06.912Z,47.10
2022-09-02T11:34:16.573Z,47.98
2022-09-02T11:37:30.090Z,47.86
2022-09-02T11:40:38.713Z,46.41
2022-09-02T11:43:46.654Z,46.62
2022-09-02T11:46:58.645Z,45.82
2022-09-02T11:50:11.112Z,46.48
2022-09-02T11:53:20.725Z,47.05
2022-09-02T11:56:26.770Z,46.60
2022-09-02T11:59:44.551Z,45.94
2022-09-02T12:02:50.507Z,47.11
2022-09-02T12:06:13.764Z,46.59
2022-09-02T12:09:37.968Z,46.45
2022-09-02T12:13:00.558Z,46.70
2022-09-02T12:16:24.142Z,46.23
2022-09-02T12:19:30.346Z,45.62
2022-09-02T12:22:38.692Z,44.48
2022-09-02T12:25:46.480Z,44.65
2022-09-02T12:28:50.993Z,45.95
2022-09-02T12:31:55.308Z,45.12
2022-09-02T12:35:08.837Z,44.66
2022-09-02T12:38:27.232Z,45.04
2022-09-02T12:41:32.868Z,45.84
2022-09-02T12:44:44.453Z,45.83
2022-09-02T12:47:59.630Z,45.88
2022-09-02T12:51:03.699Z,44.71
2022-09-02T12:54:08.043Z,44.48
2022-09-02T12:57:12.024Z,43.82
2022-09-02T13:00:19.636Z,43.70
2022-09-02T13:03:32.127Z,44.16
2022-09-02T13:06:44.602Z,44.62
2022-09-02T13:10:04.681Z,44.70
2022-09-02T13:13:20.973Z,43.75
2022-09-02T13:16:32.334Z,43.81
2022-09-02T13:19:52.245Z,43.49
2022-09-02T13:23:02.659Z,43.87
2022-09-02T13:26:27.516Z,44.39
2022-09-02T13:29:53.144Z,44.30
2022-09-02T13:33:03.445Z,44.66
2022-09-02T13:36:07.558Z,43.90
2022-09-02T13:39:18.769Z,43.39
2022-09-02T13:42:24.582Z,43.95
2022-09-02T13:45:29.677Z,44.20
2022-09-02T13:48:34.992Z,44.11
2022-09-02T13:51:45.550Z,43.94
2022-09-02T13:54:51.305Z,43.90
2022-09-02T13:57:58.393Z,43.97
2022-09-02T14:01:15.916Z,43.99
2022-09-02T14:04:20.198Z,44.50
2022-09-02T14:07:26.083Z,44.75
2022-09-02T14:10:31.508Z,44.88
2022-09-02T14:13:36.771Z,44.98
2022-09-02T14:16:40.899Z,44.60
2022-09-02T14:19:44.815Z,45.27
2022-09-02T14:22:55.314Z,44.82
2022-09-02T14:26:00.188Z,44.94
2022-09-02T14:29:06.317Z,45.29
2022-09-02T14:32:14.552Z,45.78
2022-09-02T14:35:23.394Z,45.74
2022-09-02T14:38:28.789Z,46.03
2022-09-02T14:41:36.148Z,46.31
2022-09-02T14:44:40.893Z,46.38
2022-09-02T14:47:44.967Z,46.64
2022-09-02T14:50:49.588Z,46.60
2022-09-02T14:53:53.523Z,46.80
2022-09-02T14:56:57.508Z,46.62
2022-09-02T15:00:02.344Z,46.73
2022-09-02T15:03:07.190Z,47.14
2022-09-02T15:06:15.111Z,47.52
2022-09-02T15:09:19.814Z,47.49
2022-09-02T15:12:25.750Z,47.52
2022-09-02T15:15:29.814Z,47.69
2022-09-02T15:18:33.928Z,47.86
2022-09-02T15:21:37.973Z,47.65
2022-09-02T15:24:43.526Z,48.09
2022-09-02T15:27:47.507Z,48.06
2022-09-02T15:30:57.970Z,48.02
2022-09-02T15:34:03.293Z,48.12
2022-09-02T15:37:12.186Z,48.10
2022-09-02T15:40:17.309Z,48.08
2022-09-02T15:43:21.476Z,48.51
2022-09-02T15:46:27.329Z,48.21
2022-09-02T15:49:32.623Z,48.58
2022-09-02T15:52:37.026Z,48.29
2022-09-02T15:55:41.077Z,48.61
2022-09-02T15:58:45.084Z,48.41
2022-09-02T16:01:50.037Z,48.73
2022-09-02T16:04:54.287Z,48.66
2022-09-02T16:07:58.231Z,48.45
2022-09-02T16:11:06.094Z,48.61
2022-09-02T16:14:10.536Z,49.06
2022-09-02T16:17:16.593Z,49.12
2022-09-02T16:20:21.465Z,48.77
2022-09-02T16:23:25.831Z,48.84
2022-09-02T16:26:30.537Z,49.00
2022-09-02T16:29:37.295Z,49.01
2022-09-02T16:32:41.463Z,48.99
2022-09-02T16:35:45.686Z,49.05
2022-09-02T16:38:49.656Z,49.03
2022-09-02T16:41:54.553Z,49.07
2022-09-02T16:44:58.623Z,49.33
2022-09-02T16:48:02.595Z,49.33
2022-09-02T16:51:06.823Z,49.46
2022-09-02T16:54:17.669Z,49.39
2022-09-02T16:57:25.544Z,49.34
2022-09-02T17:00:29.880Z,49.51
2022-09-02T17:03:34.112Z,49.62
2022-09-02T17:06:42.045Z,49.75
2022-09-02T17:09:46.471Z,50.03
2022-09-02T17:12:50.491Z,50.31
2022-09-02T17:15:54.456Z,50.44
2022-09-02T17:18:58.615Z,50.50
2022-09-02T17:22:02.628Z,50.61
2022-09-02T17:25:07.377Z,50.77
2022-09-02T17:28:11.366Z,50.92
2022-09-02T17:31:22.994Z,51.06
2022-09-02T17:34:27.268Z,51.25
2022-09-02T17:37:31.188Z,51.65
2022-09-02T17:40:52.593Z,51.87
2022-09-02T17:43:56.512Z,52.14
2022-09-02T17:47:00.787Z,52.95
2022-09-02T17:50:05.681Z,53.98
2022-09-02T17:53:09.707Z,53.90
2022-09-02T17:56:21.965Z,54.24
2022-09-02T17:59:28.820Z,54.63
2022-09-02T18:02:45.100Z,55.44
2022-09-02T18:05:55.677Z,56.16
2022-09-02T18:09:01.400Z,56.72
2022-09-02T18:12:07.473Z,57.40
2022-09-02T18:15:14.656Z,57.68
2022-09-02T18:18:21.687Z,58.02
2022-09-02T18:21:30.537Z,58.18
2022-09-02T18:24:43.669Z,58.94
2022-09-02T18:27:54.900Z,59.66
2022-09-02T18:31:05.701Z,60.13
2022-09-02T18:34:30.225Z,60.35
2022-09-02T18:37:39.251Z,60.69
2022-09-02T18:40:47.912Z,61.04
2022-09-02T18:43:58.866Z,61.25
2022-09-02T18:47:03.700Z,61.61
2022-09-02T18:50:11.297Z,61.97
2022-09-02T18:53:24.164Z,62.04
2022-09-02T18:56:30.848Z,62.29
2022-09-02T18:59:37.903Z,63.72
2022-09-02T19:02:46.166Z,66.90
2022-09-02T19:05:50.774Z,66.27
2022-09-02T19:08:58.041Z,64.76
2022-09-02T19:12:03.143Z,63.84
2022-09-02T19:15:09.972Z,63.13
2022-09-02T19:18:17.122Z,62.04
2022-09-02T19:21:25.909Z,61.09
2022-09-02T19:24:32.772Z,60.51
2022-09-02T19:27:38.977Z,60.26
2022-09-02T19:30:43.022Z,60.05
2022-09-02T19:33:48.975Z,59.63
2022-09-02T19:36:53.765Z,59.41
2022-09-02T19:40:01.850Z,57.90
2022-09-02T19:43:07.863Z,58.36
2022-09-02T19:46:21.938Z,59.32
2022-09-02T19:49:35.798Z,60.11
2022-09-02T19:52:41.850Z,60.75
2022-09-02T19:55:45.807Z,60.96
2022-09-02T19:58:49.728Z,61.27
2022-09-02T20:01:56.374Z,62.07
2022-09-02T20:05:00.384Z,64.45
2022-09-02T20:08:04.888Z,66.01
2022-09-02T20:11:09.135Z,65.05
2022-09-02T20:14:13.111Z,64.21
2022-09-02T20:17:21.945Z,63.41
2022-09-02T20:20:26.591Z,62.83
2022-09-02T20:23:33.579Z,62.26
2022-09-02T20:26:42.440Z,61.72
2022-09-02T20:29:56.894Z,61.58
2022-09-02T20:33:03.576Z,61.32
2022-09-02T20:36:15.872Z,60.91
2022-09-02T20:39:28.158Z,60.72
2022-09-02T20:42:55.800Z,60.37
2022-09-02T20:46:03.412Z,60.15
2022-09-02T20:49:14.179Z,59.94
2022-09-02T20:52:20.211Z,59.82
2022-09-02T20:55:26.260Z,59.67
2022-09-02T20:58:37.098Z,58.77
2022-09-02T21:01:45.522Z,58.23
2022-09-02T21:04:52.148Z,59.22
2022-09-02T21:08:00.947Z,60.17
2022-09-02T21:11:11.409Z,61.04
2022-09-02T21:14:18.700Z,61.80
2022-09-02T21:17:28.600Z,62.46
2022-09-02T21:20:40.775Z,65.18
2022-09-02T21:23:47.730Z,65.45
2022-09-02T21:26:56.603Z,64.51
2022-09-02T21:30:06.287Z,63.85
2022-09-02T21:33:12.743Z,63.48
2022-09-02T21:36:24.597Z,63.12
2022-09-02T21:39:32.473Z,62.97
2022-09-02T21:42:41.136Z,62.96
2022-09-02T21:45:48.417Z,62.93
2022-09-02T21:48:58.356Z,62.65
2022-09-02T21:52:08.328Z,62.58
2022-09-02T21:55:20.300Z,62.82
2022-09-02T21:58:36.176Z,62.82
2022-09-02T22:01:45.238Z,62.64
2022-09-02T22:04:55.301Z,62.53
2022-09-02T22:08:05.103Z,62.61
2022-09-02T22:11:10.711Z,62.61
2022-09-02T22:14:16.760Z,62.52
2022-09-02T22:17:26.151Z,62.40
2022-09-02T22:20:33.012Z,62.59
2022-09-02T22:23:37.427Z,62.42
2022-09-02T22:26:43.312Z,62.56
2022-09-02T22:29:50.671Z,62.49
2022-09-02T22:32:58.999Z,62.37
2022-09-02T22:36:07.060Z,61.91
2022-09-02T22:39:14.926Z,61.88
2022-09-02T22:42:28.526Z,61.80
2022-09-02T22:45:52.915Z,61.90
2022-09-02T22:49:22.582Z,62.17
2022-09-02T22:52:49.811Z,61.73
2022-09-02T22:55:58.924Z,61.54
2022-09-02T22:59:10.827Z,61.71
2022-09-02T23:02:20.413Z,61.82
2022-09-02T23:05:47.907Z,61.69
2022-09-02T23:08:52.192Z,61.90
2022-09-02T23:12:02.399Z,61.68
2022-09-02T23:15:16.239Z,61.78
2022-09-02T23:18:29.884Z,61.68
2022-09-02T23:21:37.652Z,61.76
2022-09-02T23:24:47.535Z,62.07
2022-09-02T23:27:54.878Z,62.11
2022-09-02T23:31:03.402Z,62.15
2022-09-02T23:34:13.844Z,62.24
2022-09-02T23:37:25.254Z,62.51
2022-09-02T23:40:32.551Z,62.35
2022-09-02T23:43:36.970Z,62.24
2022-09-02T23:46:48.438Z,62.30
2022-09-02T23:49:59.109Z,62.41
2022-09-02T23:53:09.808Z,62.49
2022-09-02T23:56:21.275Z,62.76
2022-09-02T23:59:31.748Z,62.82
